Blounts Creek, North Carolina
Current Conditions -  °F | °C
As of 3:15 PM on Wednesday 26 Nov 2014 (Local Time) from KOCW Reporting Station
Overcast Overcast  
Wind Chill: 40°   Ceiling: 900
Heat Index: 45°   Visibility: 1.7mi
Dew Point: 44°   Wind: 9mph
Humidity: 95%   Direction: 310°NW
Pressure: 29.91"   Gusts: NA
Location:  35.35°N, 76.96°W
Report Text: KOCW 262015Z AUTO 31008KT 1 3/4SM BKN009 OVC015 07/07 A2991 RMK AO2 T00730065
Loading
Personal Weather Stations






























Interactive Weather Map New forecast layout! Learn more

10-Day Weather Forecast

Advertisements
Track Severe Weather on mobile